• Join FlightAware (Why Join?)
  • Login
  • US Flag 
03:55AM EDT


 

Airport Tracker/Info


-or-


 

Live Flight TrackerFlight Track Log ✈ GJS3618 ✈ 29-Aug-2013 ✈ KOMA - KDEN

Flight Track Log - Related Links

Times and Time Zones

All times are in EDT time to prevent confusion due to time zone crossing. See the GJS3618 flight status page for this flight to view local times or setup timezone preferences in your user account.

Time Position Orientation Groundspeed Altitude Reporting Facility
EDT Latitude Longitude Course Direction KTS MPH feet Rate Location/Type
07:27AM 41.2883 -95.8869 278° West 145 167 1,800  Level Minneapolis Center
07:27AM 41.2719 -95.8814 166° South 148 170 2,400 1,560 Climbing Minneapolis Center
07:28AM 41.2178 -95.8881 185° South 187 215 4,300 2,220 Climbing Minneapolis Center
07:29AM 41.1525 -95.8936 184° South 221 254 7,000 2,160 Climbing Minneapolis Center
07:30AM 41.3167 -96.4426 270° West  Level FlightAware Approximate
07:30AM 41.1053 -95.9481 221° Southwest 262 302 8,700  Level Minneapolis Center
07:31AM 41.3167 -96.5826 270° West  Level FlightAware Approximate
07:31AM 41.1197 -96.0550 280° West 289 333 10,700  Level Minneapolis Center
07:32AM 41.3256 -96.7219 278° West  Level FlightAware Approximate
07:32AM 41.1339 -96.1733 279° West 313 360 12,300  Level Minneapolis Center
07:33AM 41.1489 -96.3058 279° West 348 400 13,700 1,620 Climbing Minneapolis Center
07:34AM 41.1661 -96.4428 280° West 368 423 15,700 2,040 Climbing Minneapolis Center
07:35AM 41.1853 -96.6053 279° West 371 427 17,900 1,740 Climbing Minneapolis Center
07:36AM 41.2014 -96.7442 279° West 377 434 19,300 1,320 Climbing Minneapolis Center
07:37AM 41.2172 -96.8897 278° West 393 452 20,700 1,380 Climbing Minneapolis Center
07:38AM 41.2353 -97.0378 279° West 403 464 22,200 1,380 Climbing Minneapolis Center
07:39AM 41.2256 -97.1872 265° West 405 466 23,600 1,200 Climbing Minneapolis Center
07:41AM 41.2069 -97.3378 261° West 412 474 25,000 1,260 Climbing Minneapolis Center
07:42AM 41.1853 -97.5331 262° West 417 480 26,500 1,260 Climbing Minneapolis Center
07:43AM 41.1681 -97.6861 262° West 419 482 27,600 840 Climbing Minneapolis Center
07:44AM 41.1497 -97.8442 261° West 428 493 28,400 780 Climbing Minneapolis Center
07:45AM 41.1269 -98.0381 261° West 440 506 29,500 1,020 Climbing Minneapolis Center
07:46AM 41.1033 -98.2333 261° West 446 513 30,700 1,080 Climbing Minneapolis Center
07:47AM 41.0839 -98.3956 261° West 446 513 31,700 780 Climbing Minneapolis Center
07:48AM 41.0653 -98.5417 260° West 445 512 32,400 600 Climbing Minneapolis Center
07:50AM 41.0275 -98.8064 259° West 460 529 33,300 600 Climbing Minneapolis Center
07:51AM 41.0061 -99.0131 262° West 471 542 34,000 600 Climbing Minneapolis Center
07:52AM 40.9856 -99.1806 261° West 471 542 34,600 600 Climbing Minneapolis Center
07:52AM 40.9722 -99.2828 260° West 472 543 35,000 720 Climbing Denver Center
07:53AM 40.9508 -99.4536 261° West 471 542 35,800 780 Climbing Denver Center
07:54AM 40.9292 -99.6211 260° West 465 535 36,600 720 Climbing Denver Center
07:55AM 40.9064 -99.7894 260° West 464 534 37,300 540 Climbing Denver Center
07:56AM 40.8858 -99.9392 260° West 464 534 37,700 300 Climbing Denver Center
07:57AM 40.8600 -100.1283 260° West 468 539 38,000 120 Climbing Denver Center
07:58AM 40.8375 -100.2908 260° West 470 541 38,000  Level Denver Center
07:59AM 40.8153 -100.4525 260° West 467 537 38,000  Level Denver Center
08:00AM 40.7917 -100.6128 259° West 464 534 38,000  Level Denver Center
08:01AM 40.7611 -100.7864 257° West 489 563 38,000  Level Denver Center
08:02AM 40.7336 -100.9733 259° West 465 535 38,000  Level Denver Center
08:03AM 40.7075 -101.1300 258° West 457 526 38,000  Level Denver Center
08:04AM 40.6814 -101.2842 257° West 454 522 38,000  Level Denver Center
08:05AM 40.6503 -101.4647 257° West 454 522 38,000  Level Denver Center
08:06AM 40.6217 -101.6194 256° West 454 522 38,000  Level Denver Center
08:07AM 40.5933 -101.7772 257° West 461 531 38,000  Level Denver Center
08:08AM 40.5656 -101.9333 257° West 460 529 38,000  Level Denver Center
08:09AM 40.5325 -102.1122 256° West 452 520 38,000  Level Denver Center
08:10AM 40.5039 -102.2656 256° West 451 519 38,000 -360 Level Denver Center
08:11AM 40.4756 -102.4161 256° West 447 514 37,300 -1,680 Descending Denver Center
08:12AM 40.4431 -102.5942 257° West 450 518 34,700 -2,340 Descending Denver Center
08:13AM 40.4158 -102.7375 256° West 445 512 32,600 -2,220 Descending Denver Center
08:14AM 40.3872 -102.8933 256° West 441 507 30,300 -2,280 Descending Denver Center
08:15AM 40.3589 -103.0442 256° West 430 495 28,000 -2,280 Descending Denver Center
08:16AM 40.3300 -103.1872 255° West 410 472 25,800 -2,160 Descending Denver Center
08:18AM 40.3039 -103.3258 256° West 396 456 23,700 -2,040 Descending Denver Center
08:19AM 40.2772 -103.4636 256° West 393 452 21,700 -1,980 Descending Denver Center
08:20AM 40.2508 -103.5925 255° West 373 429 19,800 -1,920 Descending Denver Center
08:21AM 40.2225 -103.7356 256° West 358 412 17,900 -1,440 Descending Denver Center
08:22AM 40.2014 -103.8522 257° West 333 383 16,900 -1,140 Descending Denver Center
08:23AM 40.2125 -103.9694 277° West 328 377 15,700 -1,260 Descending Denver Center
08:24AM 40.2214 -104.0792 276° West 309 356 14,400 -1,380 Descending Denver Center
08:25AM 40.2333 -104.1981 278° West 308 354 13,000 -1,200 Descending Denver Center
08:26AM 40.2364 -104.3044 272° West 294 338 12,100 -1,020 Descending Denver Center
08:27AM 40.2294 -104.3983 264° West 264 304 11,000 -1,260 Descending Denver Center
08:28AM 40.2094 -104.4850 253° West 252 290 9,600 -1,020 Descending Denver Center
08:29AM 40.1711 -104.5619 237° Southwest 252 290 9,000 -300 Descending Denver Center
08:30AM 40.1333 -104.6364 236° Southwest 248 285 9,000 -300 Level Denver Center
08:31AM 40.0800 -104.6914 218° Southwest 244 281 8,500 -720 Descending Denver Center
08:32AM 40.0136 -104.6842 175° South 241 277 7,600 -1,020 Descending Denver Center
08:33AM 39.9597 -104.6864 182° South 196 226 6,500 -960 Descending Denver Center
08:34AM 39.9172 -104.6864 180° South 157 181 5,700 -600 Descending Denver Center
08:35AM 39.8811 -104.6869 181° South 132 152 5,300 -420 Descending Denver Center